Winterport, Maine
Current Conditions -  °F | °C
As of 4:53 PM on Thursday 18 Dec 2014 (Local Time) from KBGR Reporting Station
Overcast Overcast  
Wind Chill: -7°   Ceiling: 3800
Heat Index: -1°   Visibility: 9mi
Dew Point: -3°   Wind: 13mph
Humidity: 85%   Direction: 300°WNW
Pressure: 29.66"   Gusts: NA
Location:  44.65°N, 68.86°W
Report Text: KBGR 182153Z 30011KT 9SM BKN038 OVC070 M01/M03 A2966 RMK AO2 SNE52 SLP046 BINOVC W-NW P0000 T10111033
Loading
Personal Weather Stations






























Interactive Weather Map New forecast layout! Learn more

10-Day Weather Forecast

Advertisements
Track Severe Weather on mobile